Florencia — IBPD — position and weather

sailwx.info

Track history (hours):
 
Tides and Currents Weather Stations Pressure Air Temp Water Temp Dewpoint Dewpoint Depression Visibility Wind Speed Wind Dir Waves Ship Positions

Florencia

Last reported at 2014-Oct-01 02:33 UTC. Time now 2014-Oct-01 18:30 UTC.
Position N 38°50' E 013°26'.

Length 186 m; draft 5.8 m.

Type: Ship. MMSI: 247105900.

Date/timePositionNaut miles runAvg speedWind from/ knotsBaromVisibWave heightAir tempDewpointWater temp
2014-Oct-01 02:33N 38°50' E 013°26'2121.2
2014-Oct-01 01:33N 38°30' E 013°36'2121.1
2014-Oct-01 00:33N 38°10' E 013°44'1111.1
2014-Sep-30 23:33N 37°59' E 013°42'0 0.0
2014-Sep-30 22:31N 37°59' E 013°42'0 0.0
2014-Sep-30 21:31N 37°59' E 013°42'0 0.0
2014-Sep-30 20:31N 37°59' E 013°42'0 0.0
2014-Sep-30 19:31N 37°59' E 013°42'0 0.0
2014-Sep-30 18:31N 37°59' E 013°42'0 0.0
2014-Sep-30 17:33N 37°59' E 013°42'0 0.0
2014-Sep-30 16:33N 37°59' E 013°42'0 0.0
2014-Sep-30 15:33N 37°59' E 013°42'0 0.0
2014-Sep-30 14:33N 37°59' E 013°42'0 0.0
2014-Sep-30 13:33N 37°59' E 013°42'0 0.0
2014-Sep-30 12:33N 37°59' E 013°42'0 0.0
2014-Sep-30 11:33N 37°59' E 013°42'0 0.0
2014-Sep-30 10:33N 37°59' E 013°42'0 0.0
2014-Sep-30 09:33N 37°59' E 013°42'0 0.0
2014-Sep-30 08:33N 37°59' E 013°42'0 0.0
2014-Sep-30 07:33N 37°59' E 013°42'1514.9
2014-Sep-30 06:33N 38°14' E 013°43'2221.8
2014-Sep-30 05:33N 38°35' E 013°34'29 0.8
2014-Sep-28 16:21N 38°08' E 013°22'  
2014-Sep-26 02:04N 38°56' E 013°23'1121.5
2014-Sep-26 01:33N 38°46' E 013°28'2121.2
2014-Sep-26 00:33N 38°26' E 013°38'2120.7
2014-Sep-25 23:33N 38°06' E 013°44'7 6.8
2014-Sep-25 22:31N 37°59' E 013°42'0 0.0
2014-Sep-25 21:31N 37°59' E 013°42'0 0.0
2014-Sep-25 20:31N 37°59' E 013°42'0 0.0
2014-Sep-25 19:31N 37°59' E 013°42'0 0.0
2014-Sep-25 18:31N 37°59' E 013°42'0 0.0
2014-Sep-25 17:31N 37°59' E 013°42'0 0.0
2014-Sep-25 16:31N 37°59' E 013°42'0 0.0
2014-Sep-25 15:31N 37°59' E 013°42'0 0.0
2014-Sep-25 14:31N 37°59' E 013°42'0 0.0
2014-Sep-25 13:31N 37°59' E 013°42'0 0.0
2014-Sep-25 12:31N 37°59' E 013°42'0 0.0
2014-Sep-25 11:31N 37°59' E 013°42'0 0.0
2014-Sep-25 10:28N 37°59' E 013°42'0 0.0
2014-Sep-25 09:31N 37°59' E 013°42'0 0.0
2014-Sep-25 08:34N 37°59' E 013°42'2 1.5
2014-Sep-25 07:33N 38°00' E 013°44'2120.5
2014-Sep-25 06:33N 38°21' E 013°41'2121.3
2014-Sep-25 05:33N 38°40' E 013°31'19 0.7
2014-Sep-24 03:05N 38°58' E 013°22'1121.1
2014-Sep-24 02:33N 38°47' E 013°28'2120.8
2014-Sep-24 01:33N 38°28' E 013°37'2020.3
2014-Sep-24 00:33N 38°08' E 013°43'9 9.1
2014-Sep-23 23:33N 37°59' E 013°42'0 0.0
2014-Sep-23 22:31N 37°59' E 013°42'0 0.0
2014-Sep-23 21:31N 37°59' E 013°42'0 0.0
2014-Sep-23 20:31N 37°59' E 013°42'0 0.0
2014-Sep-23 19:31N 37°59' E 013°42'0 0.0
2014-Sep-23 18:28N 37°59' E 013°42'0 0.0
2014-Sep-23 17:31N 37°59' E 013°42'0 0.0
2014-Sep-23 16:33N 37°59' E 013°42'0 0.0
2014-Sep-23 15:34N 37°59' E 013°42'0 0.0
2014-Sep-23 13:34N 37°59' E 013°42'0 0.0
2014-Sep-23 12:34N 37°59' E 013°42'0 0.0
2014-Sep-23 11:33N 37°59' E 013°42'0 0.0
2014-Sep-23 10:34N 37°59' E 013°42'0 0.0
2014-Sep-23 09:33N 37°59' E 013°42'0 0.0
2014-Sep-23 08:34N 37°59' E 013°42'0 0.1
2014-Sep-23 07:34N 37°59' E 013°42'1616.2
2014-Sep-23 06:33N 38°15' E 013°43'2121.3
2014-Sep-23 05:33N 38°35' E 013°34'2120.9
2014-Sep-23 04:33N 38°55' E 013°24'2120.8
2014-Sep-23 03:33N 39°14' E 013°14'8 0.3
2014-Sep-21 21:33N 39°08' E 013°07'2120.9
2014-Sep-21 20:33N 38°49' E 013°17'2120.7
2014-Sep-21 19:34N 38°28' E 013°22'2020.1
2014-Sep-21 18:33N 38°08' E 013°25'2 2.4
2014-Sep-21 17:31N 38°08' E 013°22'0 0.0
2014-Sep-21 16:33N 38°08' E 013°22'0 0.0
2014-Sep-21 15:34N 38°08' E 013°22'0 0.0
2014-Sep-21 13:34N 38°08' E 013°22'0 0.0
2014-Sep-21 12:34N 38°08' E 013°22'0 0.0
2014-Sep-21 11:34N 38°08' E 013°22'0 0.0
2014-Sep-21 10:32N 38°08' E 013°22'0 0.0
2014-Sep-21 09:33N 38°08' E 013°22'2 2.3
2014-Sep-21 08:34N 38°09' E 013°24'11419.0
2014-Sep-21 02:33N 37°29' E 011°09'  
Track history (hours):
 
Tides and Currents Weather Stations Pressure Air Temp Water Temp Dewpoint Dewpoint Depression Visibility Wind Speed Wind Dir Waves Ship Positions

Florencia

Last reported at 2014-Oct-01 02:33 UTC. Time now 2014-Oct-01 18:30 UTC.
Position N 38°50' E 013°26'.

Length 186 m; draft 5.8 m.

Type: Ship. MMSI: 247105900.

Date/timePositionNaut miles runAvg speedWind from/ knotsBaromVisibWave heightAir tempDewpointWater temp
2014-Oct-01 02:33N 38°50' E 013°26'2121.2
2014-Oct-01 01:33N 38°30' E 013°36'2121.1
2014-Oct-01 00:33N 38°10' E 013°44'1111.1
2014-Sep-30 23:33N 37°59' E 013°42'0 0.0
2014-Sep-30 22:31N 37°59' E 013°42'0 0.0
2014-Sep-30 21:31N 37°59' E 013°42'0 0.0
2014-Sep-30 20:31N 37°59' E 013°42'0 0.0
2014-Sep-30 19:31N 37°59' E 013°42'0 0.0
2014-Sep-30 18:31N 37°59' E 013°42'0 0.0
2014-Sep-30 17:33N 37°59' E 013°42'0 0.0
2014-Sep-30 16:33N 37°59' E 013°42'0 0.0
2014-Sep-30 15:33N 37°59' E 013°42'0 0.0
2014-Sep-30 14:33N 37°59' E 013°42'0 0.0
2014-Sep-30 13:33N 37°59' E 013°42'0 0.0
2014-Sep-30 12:33N 37°59' E 013°42'0 0.0
2014-Sep-30 11:33N 37°59' E 013°42'0 0.0
2014-Sep-30 10:33N 37°59' E 013°42'0 0.0
2014-Sep-30 09:33N 37°59' E 013°42'0 0.0
2014-Sep-30 08:33N 37°59' E 013°42'0 0.0
2014-Sep-30 07:33N 37°59' E 013°42'1514.9
2014-Sep-30 06:33N 38°14' E 013°43'2221.8
2014-Sep-30 05:33N 38°35' E 013°34'29 0.8
2014-Sep-28 16:21N 38°08' E 013°22'  
2014-Sep-26 02:04N 38°56' E 013°23'1121.5
2014-Sep-26 01:33N 38°46' E 013°28'2121.2
2014-Sep-26 00:33N 38°26' E 013°38'2120.7
2014-Sep-25 23:33N 38°06' E 013°44'7 6.8
2014-Sep-25 22:31N 37°59' E 013°42'0 0.0
2014-Sep-25 21:31N 37°59' E 013°42'0 0.0
2014-Sep-25 20:31N 37°59' E 013°42'0 0.0
2014-Sep-25 19:31N 37°59' E 013°42'0 0.0
2014-Sep-25 18:31N 37°59' E 013°42'0 0.0
2014-Sep-25 17:31N 37°59' E 013°42'0 0.0
2014-Sep-25 16:31N 37°59' E 013°42'0 0.0
2014-Sep-25 15:31N 37°59' E 013°42'0 0.0
2014-Sep-25 14:31N 37°59' E 013°42'0 0.0
2014-Sep-25 13:31N 37°59' E 013°42'0 0.0
2014-Sep-25 12:31N 37°59' E 013°42'0 0.0
2014-Sep-25 11:31N 37°59' E 013°42'0 0.0
2014-Sep-25 10:28N 37°59' E 013°42'0 0.0
2014-Sep-25 09:31N 37°59' E 013°42'0 0.0
2014-Sep-25 08:34N 37°59' E 013°42'2 1.5
2014-Sep-25 07:33N 38°00' E 013°44'2120.5
2014-Sep-25 06:33N 38°21' E 013°41'2121.3
2014-Sep-25 05:33N 38°40' E 013°31'19 0.7
2014-Sep-24 03:05N 38°58' E 013°22'1121.1
2014-Sep-24 02:33N 38°47' E 013°28'2120.8
2014-Sep-24 01:33N 38°28' E 013°37'2020.3
2014-Sep-24 00:33N 38°08' E 013°43'9 9.1
2014-Sep-23 23:33N 37°59' E 013°42'0 0.0
2014-Sep-23 22:31N 37°59' E 013°42'0 0.0
2014-Sep-23 21:31N 37°59' E 013°42'0 0.0
2014-Sep-23 20:31N 37°59' E 013°42'0 0.0
2014-Sep-23 19:31N 37°59' E 013°42'0 0.0
2014-Sep-23 18:28N 37°59' E 013°42'0 0.0
2014-Sep-23 17:31N 37°59' E 013°42'0 0.0
2014-Sep-23 16:33N 37°59' E 013°42'0 0.0
2014-Sep-23 15:34N 37°59' E 013°42'0 0.0
2014-Sep-23 13:34N 37°59' E 013°42'0 0.0
2014-Sep-23 12:34N 37°59' E 013°42'0 0.0
2014-Sep-23 11:33N 37°59' E 013°42'0 0.0
2014-Sep-23 10:34N 37°59' E 013°42'0 0.0
2014-Sep-23 09:33N 37°59' E 013°42'0 0.0
2014-Sep-23 08:34N 37°59' E 013°42'0 0.1
2014-Sep-23 07:34N 37°59' E 013°42'1616.2
2014-Sep-23 06:33N 38°15' E 013°43'2121.3
2014-Sep-23 05:33N 38°35' E 013°34'2120.9
2014-Sep-23 04:33N 38°55' E 013°24'2120.8
2014-Sep-23 03:33N 39°14' E 013°14'8 0.3
2014-Sep-21 21:33N 39°08' E 013°07'2120.9
2014-Sep-21 20:33N 38°49' E 013°17'2120.7
2014-Sep-21 19:34N 38°28' E 013°22'2020.1
2014-Sep-21 18:33N 38°08' E 013°25'2 2.4
2014-Sep-21 17:31N 38°08' E 013°22'0 0.0
2014-Sep-21 16:33N 38°08' E 013°22'0 0.0
2014-Sep-21 15:34N 38°08' E 013°22'0 0.0
2014-Sep-21 13:34N 38°08' E 013°22'0 0.0
2014-Sep-21 12:34N 38°08' E 013°22'0 0.0
2014-Sep-21 11:34N 38°08' E 013°22'0 0.0
2014-Sep-21 10:32N 38°08' E 013°22'0 0.0
2014-Sep-21 09:33N 38°08' E 013°22'2 2.3
2014-Sep-21 08:34N 38°09' E 013°24'11419.0
2014-Sep-21 02:33N 37°29' E 011°09'  

Dump ship's entire track history